MKJPMWCR

Guest
Details From MKJP - Norman Manley Intl
To MWCR - Owen Roberts Intl
Flight Number -
Tags generated
Created
Modified
Stats Distance 274 nm / 507 km
Max Altitude 28,200 ft / 8,595 m
Waypoints 7
Social Downloads 1
Likes 0
Share VATSIM

Download

Looking for another format? Having issues loading an existing format? Contact us
Advertisement - Login to hide

Notes

Basic altitude profile: - Ascent Rate: 2500ft/min - Ascent Speed: 250kts - Cruise Altitude: 35000ft - Cruise Speed: 420kts - Descent Rate: 1500ft/min - Descent Speed: 250kts Options: - Use NATs: yes - Use PACOTS: yes - Use low airways: yes - Use high airways: yes

Route

MKJP KEMBO A511 SIA UG633 NALRO MWCR

ID Type Via Altitude Latitude Longitude Leg Dist Tot Dist Heading (true) Name
O MKJP APT - 0 ft / 0 m 17.93567˚ -76.78756˚ - 0 nm - Norman Manley Intl
KEMBO FIX - 12,000 ft / 3,658 m 18.21889˚ -77.35472˚ 36 nm 36 nm 298° / 298° -
SIA VOR A511 (AWY-LO) 24,500 ft / 7,468 m 18.50106˚ -77.92411˚ 36 nm 73 nm 298° / 297° SANGSTER VOR-DME
FROST FIX UG633 (AWY-HI) 28,200 ft / 8,595 m 18.76000˚ -79.02000˚ 64 nm 137 nm 284° / 284° -
OTEKO FIX UG633 (AWY-HI) 24,500 ft / 7,468 m 18.87028˚ -79.50000˚ 28 nm 165 nm 284° / 284° -
NALRO FIX UG633 (AWY-HI) 24,500 ft / 7,468 m 19.03083˚ -80.20614˚ 41 nm 206 nm 284° / 283° -
O MWCR APT - 0 ft / 0 m 19.29278˚ -81.35776˚ 67 nm 273 nm 284° / 283° Owen Roberts Intl

Altitude Profile

Advertisement - Login to hide

Weather


0- 5 10 15 20 25 30 35+ Temperature / ° C

Clouds and Precipitation
Forecast for 2017-12-15 12:00 UTC. Updated an hour ago

Ground ~20,000 ft ~40,000 ft Winds

MKJP

Details ICAO MKJP (KIN)
Name Norman Manley Intl
Region Jamaica
Timezone Unknown (UTC+0.0)
Stats Elevation 10 ft / 3 m (AMSL)
Location 17.935665° -76.787560°
Runways 1
Magnetic Variation 7.541° W

METAR

MKJP 151000Z 07003KT 9999 FEW022 26/22 Q1014

Decode

TAF

TAF MKJP 150515Z 1506/1606 11010KT 9999 FEW022 BECMG 1514/1516 12020KT BECMG 1601/1603 12010KT

Decode

Departure Runways

ID Width Length Bearing (true) Bearing (mag) Surface Threshold Offset Overrun Length
12 150 ft / 46 m 8,912 ft / 2,717 m 112.09° 119.63° Asphalt 0 ft / 0 m 0 ft / 0 m
30 150 ft / 46 m 8,912 ft / 2,717 m 292.10° 299.64° Asphalt 0 ft / 0 m 0 ft / 0 m

MWCR

Details ICAO MWCR (GCM)
Name Owen Roberts Intl
Region Cayman Islands
Timezone America/Cayman (UTC-5.0)
Stats Elevation 7 ft / 2 m (AMSL)
Location 19.292776° -81.357760°
Runways 1
Magnetic Variation 4.989° W

METAR

Not found

TAF

TAF TAF MWCR 142300Z 1500/1524 07010KT 9999 VCSH FEW018 BKN050 TAF MWCB 150000Z 1418/1518 CNL

Decode

Destination Runways

ID Width Length Bearing (true) Bearing (mag) Surface Threshold Offset Overrun Length
08 148 ft / 45 m 7,016 ft / 2,139 m 75.84° 80.83° Asphalt 0 ft / 0 m 0 ft / 0 m
26 148 ft / 45 m 7,016 ft / 2,139 m 255.85° 260.84° Asphalt 400 ft / 122 m 0 ft / 0 m

Popular Alternatives